createdAt,value
2023-03-29T00:00:55.596Z,3.73
2023-03-29T00:01:55.601Z,3.69
2023-03-29T00:02:55.654Z,3.73
2023-03-29T00:03:55.660Z,3.73
2023-03-29T00:04:55.522Z,3.66
2023-03-29T00:05:55.515Z,3.68
2023-03-29T00:06:55.512Z,3.63
2023-03-29T00:07:55.521Z,3.63
2023-03-29T00:08:55.492Z,3.62
2023-03-29T00:09:55.470Z,3.59
2023-03-29T00:10:55.468Z,3.58
2023-03-29T00:11:55.490Z,3.56
2023-03-29T00:12:55.453Z,3.56
2023-03-29T00:13:55.445Z,3.56
2023-03-29T00:14:55.427Z,3.56
2023-03-29T00:15:55.406Z,3.51
2023-03-29T00:16:55.723Z,3.53
2023-03-29T00:17:55.433Z,3.51
2023-03-29T00:18:55.388Z,3.53
2023-03-29T00:19:55.365Z,3.53
2023-03-29T00:20:55.361Z,3.53
2023-03-29T00:21:55.362Z,3.51
2023-03-29T00:22:55.479Z,3.50
2023-03-29T00:23:55.348Z,3.48
2023-03-29T00:24:55.318Z,3.51
2023-03-29T00:25:55.319Z,3.47
2023-03-29T00:26:55.343Z,3.47
2023-03-29T00:27:55.285Z,3.47
2023-03-29T00:28:55.289Z,3.45
2023-03-29T00:29:55.266Z,3.44
2023-03-29T00:30:55.314Z,3.44
2023-03-29T00:31:55.779Z,3.42
2023-03-29T00:32:55.266Z,3.45
2023-03-29T00:33:55.276Z,3.47
2023-03-29T00:34:55.218Z,3.45
2023-03-29T00:35:55.257Z,3.44
2023-03-29T00:36:55.243Z,3.41
2023-03-29T00:37:55.203Z,3.41
2023-03-29T00:38:55.177Z,3.40
2023-03-29T00:39:55.189Z,3.40
2023-03-29T00:40:55.172Z,3.40
2023-03-29T00:41:55.155Z,3.40
2023-03-29T00:42:55.142Z,3.34
2023-03-29T00:43:55.124Z,3.37
2023-03-29T00:44:55.129Z,3.37
2023-03-29T00:45:55.116Z,3.36
2023-03-29T00:46:55.168Z,3.37
2023-03-29T00:47:55.165Z,3.37
2023-03-29T00:48:55.082Z,3.36
2023-03-29T00:49:55.223Z,3.37
2023-03-29T00:50:55.069Z,3.37
2023-03-29T00:51:55.055Z,3.41
2023-03-29T00:52:55.071Z,3.40
2023-03-29T00:53:55.022Z,3.40
2023-03-29T00:54:55.139Z,3.44
2023-03-29T00:55:55.003Z,3.44
2023-03-29T00:56:55.085Z,3.41
2023-03-29T00:57:54.977Z,3.41
2023-03-29T00:58:54.965Z,3.41
2023-03-29T00:59:54.955Z,3.37
2023-03-29T01:00:54.960Z,3.37
2023-03-29T01:01:55.336Z,3.41
2023-03-29T01:02:55.228Z,3.41
2023-03-29T01:03:55.062Z,3.40
2023-03-29T01:04:54.928Z,3.36
2023-03-29T01:05:54.940Z,3.32
2023-03-29T01:06:54.916Z,3.31
2023-03-29T01:07:55.149Z,3.32
2023-03-29T01:08:54.876Z,3.34
2023-03-29T01:09:54.869Z,3.32
2023-03-29T01:10:54.901Z,3.36
2023-03-29T01:11:54.836Z,3.36
2023-03-29T01:12:55.015Z,3.36
2023-03-29T01:13:54.821Z,3.36
2023-03-29T01:14:54.821Z,3.34
2023-03-29T01:15:54.892Z,3.34
2023-03-29T01:16:54.817Z,3.36
2023-03-29T01:17:55.030Z,3.36
2023-03-29T01:18:54.771Z,3.34
2023-03-29T01:19:54.757Z,3.36
2023-03-29T01:20:54.761Z,3.37
2023-03-29T01:21:54.737Z,3.34
2023-03-29T01:22:55.297Z,3.32
2023-03-29T01:23:54.728Z,3.36
2023-03-29T01:24:54.714Z,3.36
2023-03-29T01:25:54.711Z,3.36
2023-03-29T01:26:54.691Z,3.36
2023-03-29T01:27:54.701Z,3.34
2023-03-29T01:28:54.685Z,3.34
2023-03-29T01:29:54.670Z,3.36
2023-03-29T01:30:54.658Z,3.32
2023-03-29T01:31:54.715Z,3.36
2023-03-29T01:32:54.690Z,3.34
2023-03-29T01:33:54.619Z,3.34
2023-03-29T01:34:54.616Z,3.34
2023-03-29T01:35:54.661Z,3.36
2023-03-29T01:36:54.605Z,3.36
2023-03-29T01:37:54.599Z,3.37
2023-03-29T01:38:54.576Z,3.34
2023-03-29T01:39:54.565Z,3.32
2023-03-29T01:40:54.590Z,3.34
2023-03-29T01:41:54.549Z,3.36
2023-03-29T01:42:54.545Z,3.32
2023-03-29T01:43:54.568Z,3.34
2023-03-29T01:44:54.542Z,3.34
2023-03-29T01:45:54.541Z,3.34
2023-03-29T01:46:54.491Z,3.36
2023-03-29T01:47:54.585Z,3.31
2023-03-29T01:48:54.474Z,3.28
2023-03-29T01:49:54.448Z,3.29
2023-03-29T01:50:54.474Z,3.31
2023-03-29T01:51:54.450Z,3.26
2023-03-29T01:52:54.446Z,3.26
2023-03-29T01:53:54.422Z,3.28
2023-03-29T01:54:54.420Z,3.26
2023-03-29T01:55:54.410Z,3.28
2023-03-29T01:56:54.447Z,3.26
2023-03-29T01:57:54.426Z,3.29
2023-03-29T01:58:54.397Z,3.26
2023-03-29T01:59:54.368Z,3.25
2023-03-29T02:00:54.383Z,3.25
2023-03-29T02:01:54.423Z,3.25
2023-03-29T02:02:54.412Z,3.23
2023-03-29T02:03:54.603Z,3.25
2023-03-29T02:04:54.317Z,3.26
2023-03-29T02:05:54.294Z,3.23
2023-03-29T02:06:54.291Z,3.25
2023-03-29T02:07:54.276Z,3.22
2023-03-29T02:08:54.320Z,3.21
2023-03-29T02:09:54.275Z,3.19
2023-03-29T02:10:54.242Z,3.18
2023-03-29T02:11:54.239Z,3.19
2023-03-29T02:12:54.242Z,3.19
2023-03-29T02:13:54.242Z,3.21
2023-03-29T02:14:54.286Z,3.18
2023-03-29T02:15:54.217Z,3.25
2023-03-29T02:16:54.201Z,3.23
2023-03-29T02:17:54.204Z,3.21
2023-03-29T02:18:54.186Z,3.22
2023-03-29T02:19:54.162Z,3.22
2023-03-29T02:20:54.142Z,3.25
2023-03-29T02:21:54.139Z,3.21
2023-03-29T02:22:54.146Z,3.21
2023-03-29T02:23:54.122Z,3.25
2023-03-29T02:24:54.104Z,3.22
2023-03-29T02:25:54.121Z,3.22
2023-03-29T02:26:54.081Z,3.25
2023-03-29T02:27:54.128Z,3.22
2023-03-29T02:28:54.103Z,3.22
2023-03-29T02:29:54.083Z,3.21
2023-03-29T02:30:54.059Z,3.25
2023-03-29T02:31:54.071Z,3.22
2023-03-29T02:32:54.185Z,3.21
2023-03-29T02:33:54.017Z,3.22
2023-03-29T02:34:54.012Z,3.23
2023-03-29T02:35:54.020Z,3.25
2023-03-29T02:36:53.992Z,3.21
2023-03-29T02:37:53.999Z,3.22
2023-03-29T02:38:53.966Z,3.22
2023-03-29T02:39:53.977Z,3.23
2023-03-29T02:40:53.948Z,3.28
2023-03-29T02:41:53.932Z,3.25
2023-03-29T02:42:53.938Z,3.26
2023-03-29T02:43:53.929Z,3.25
2023-03-29T02:44:53.902Z,3.26
2023-03-29T02:45:53.987Z,3.26
2023-03-29T02:46:53.910Z,3.29
2023-03-29T02:47:53.940Z,3.25
2023-03-29T02:48:53.856Z,3.28
2023-03-29T02:49:53.885Z,3.28
2023-03-29T02:50:53.848Z,3.29
2023-03-29T02:51:53.842Z,3.31
2023-03-29T02:52:53.854Z,3.31
2023-03-29T02:53:53.813Z,3.29
2023-03-29T02:54:53.847Z,3.31
2023-03-29T02:55:53.805Z,3.31
2023-03-29T02:56:53.808Z,3.31
2023-03-29T02:57:53.803Z,3.28
2023-03-29T02:58:53.770Z,3.28
2023-03-29T02:59:53.781Z,3.26
2023-03-29T03:00:53.737Z,3.28
2023-03-29T03:01:53.945Z,3.29
2023-03-29T03:02:53.795Z,3.28
2023-03-29T03:03:53.808Z,3.26
2023-03-29T03:04:53.701Z,3.26
2023-03-29T03:05:53.699Z,3.28
2023-03-29T03:06:53.689Z,3.29
2023-03-29T03:07:53.700Z,3.32
2023-03-29T03:08:53.663Z,3.29
2023-03-29T03:09:53.665Z,3.31
2023-03-29T03:10:53.647Z,3.28
2023-03-29T03:11:53.650Z,3.31
2023-03-29T03:12:53.641Z,3.31
2023-03-29T03:13:53.622Z,3.31
2023-03-29T03:14:53.629Z,3.31
2023-03-29T03:15:53.628Z,3.28
2023-03-29T03:16:53.575Z,3.31
2023-03-29T03:17:53.658Z,3.34
2023-03-29T03:18:53.561Z,3.29
2023-03-29T03:19:53.585Z,3.29
2023-03-29T03:20:53.548Z,3.32
2023-03-29T03:21:53.535Z,3.36
2023-03-29T03:22:53.535Z,3.36
2023-03-29T03:23:53.533Z,3.34
2023-03-29T03:24:53.518Z,3.37
2023-03-29T03:25:53.532Z,3.41
2023-03-29T03:26:53.484Z,3.37
2023-03-29T03:27:53.578Z,3.41
2023-03-29T03:28:53.466Z,3.40
2023-03-29T03:29:53.462Z,3.44
2023-03-29T03:30:53.441Z,3.41
2023-03-29T03:31:54.267Z,3.42
2023-03-29T03:32:53.745Z,3.44
2023-03-29T03:33:53.416Z,3.42
2023-03-29T03:34:53.493Z,3.44
2023-03-29T03:35:53.433Z,3.45
2023-03-29T03:36:53.380Z,3.45
2023-03-29T03:37:53.364Z,3.45
2023-03-29T03:38:53.393Z,3.47
2023-03-29T03:39:53.348Z,3.47
2023-03-29T03:40:53.336Z,3.45
2023-03-29T03:41:53.327Z,3.45
2023-03-29T03:42:53.318Z,3.47
2023-03-29T03:43:53.325Z,3.45
2023-03-29T03:44:53.296Z,3.45
2023-03-29T03:45:53.567Z,3.44
2023-03-29T03:46:53.282Z,3.47
2023-03-29T03:47:53.375Z,3.51
2023-03-29T03:48:53.280Z,3.48
2023-03-29T03:49:53.254Z,3.51
2023-03-29T03:50:53.246Z,3.50
2023-03-29T03:51:53.220Z,3.51
2023-03-29T03:52:53.203Z,3.53
2023-03-29T03:53:53.225Z,3.51
2023-03-29T03:54:53.217Z,3.50
2023-03-29T03:55:53.188Z,3.51
2023-03-29T03:56:53.313Z,3.53
2023-03-29T03:57:53.168Z,3.55
2023-03-29T03:58:53.176Z,3.53
2023-03-29T03:59:53.142Z,3.51
2023-03-29T04:00:53.149Z,3.53
2023-03-29T04:01:53.119Z,3.51
2023-03-29T04:02:53.177Z,3.48
2023-03-29T04:03:53.149Z,3.50
2023-03-29T04:04:53.083Z,3.48
2023-03-29T04:05:53.100Z,3.48
2023-03-29T04:06:53.066Z,3.50
2023-03-29T04:07:53.056Z,3.50
2023-03-29T04:08:53.076Z,3.51
2023-03-29T04:09:53.097Z,3.50
2023-03-29T04:10:53.051Z,3.50
2023-03-29T04:11:53.024Z,3.51
2023-03-29T04:12:53.033Z,3.51
2023-03-29T04:13:53.025Z,3.50
2023-03-29T04:14:52.988Z,3.50
2023-03-29T04:15:53.007Z,3.55
2023-03-29T04:16:53.036Z,3.56
2023-03-29T04:17:53.058Z,3.56
2023-03-29T04:18:53.027Z,3.55
2023-03-29T04:19:53.012Z,3.56
2023-03-29T04:20:52.984Z,3.58
2023-03-29T04:21:52.927Z,3.56
2023-03-29T04:22:52.907Z,3.58
2023-03-29T04:23:52.902Z,3.56
2023-03-29T04:24:52.910Z,3.55
2023-03-29T04:25:52.897Z,3.56
2023-03-29T04:26:52.866Z,3.56
2023-03-29T04:27:52.856Z,3.53
2023-03-29T04:28:52.862Z,3.56
2023-03-29T04:29:52.791Z,3.56
2023-03-29T04:30:52.860Z,3.56
2023-03-29T04:31:52.980Z,3.56
2023-03-29T04:32:52.798Z,3.53
2023-03-29T04:33:52.819Z,3.51
2023-03-29T04:34:52.797Z,3.53
2023-03-29T04:35:52.831Z,3.48
2023-03-29T04:36:52.721Z,3.50
2023-03-29T04:37:52.715Z,3.55
2023-03-29T04:38:52.765Z,3.51
2023-03-29T04:39:52.745Z,3.55
2023-03-29T04:40:52.683Z,3.56
2023-03-29T04:41:52.681Z,3.56
2023-03-29T04:42:52.711Z,3.55
2023-03-29T04:43:52.684Z,3.55
2023-03-29T04:44:52.673Z,3.53
2023-03-29T04:45:52.633Z,3.51
2023-03-29T04:46:52.653Z,3.55
2023-03-29T04:47:52.634Z,3.53
2023-03-29T04:48:52.608Z,3.55
2023-03-29T04:49:52.704Z,3.56
2023-03-29T04:50:52.599Z,3.56
2023-03-29T04:51:52.570Z,3.56
2023-03-29T04:52:52.779Z,3.56
2023-03-29T04:53:52.559Z,3.55
2023-03-29T04:54:52.558Z,3.58
2023-03-29T04:55:52.614Z,3.59
2023-03-29T04:56:52.599Z,3.60
2023-03-29T04:57:52.527Z,3.56
2023-03-29T04:58:52.487Z,3.58
2023-03-29T04:59:52.532Z,3.60
2023-03-29T05:00:52.488Z,3.60
2023-03-29T05:01:52.547Z,3.65
2023-03-29T05:02:52.478Z,3.63
2023-03-29T05:03:52.550Z,3.62
2023-03-29T05:04:52.428Z,3.62
2023-03-29T05:05:52.440Z,3.65
2023-03-29T05:06:52.428Z,3.62
2023-03-29T05:07:52.437Z,3.60
2023-03-29T05:08:52.451Z,3.63
2023-03-29T05:09:52.393Z,3.62
2023-03-29T05:10:52.369Z,3.66
2023-03-29T05:11:52.404Z,3.63
2023-03-29T05:12:52.339Z,3.68
2023-03-29T05:13:53.259Z,3.69
2023-03-29T05:14:52.342Z,3.69
2023-03-29T05:15:52.346Z,3.69
2023-03-29T05:16:52.340Z,3.73
2023-03-29T05:17:52.358Z,3.76
2023-03-29T05:18:52.341Z,3.74
2023-03-29T05:19:52.277Z,3.76
2023-03-29T05:20:52.272Z,3.76
2023-03-29T05:21:52.265Z,3.78
2023-03-29T05:22:52.243Z,3.78
2023-03-29T05:23:52.284Z,3.81
2023-03-29T05:24:52.218Z,3.80
2023-03-29T05:25:52.231Z,3.80
2023-03-29T05:26:52.244Z,3.83
2023-03-29T05:27:52.205Z,3.83
2023-03-29T05:28:52.231Z,3.83
2023-03-29T05:29:52.172Z,3.84
2023-03-29T05:30:52.168Z,3.84
2023-03-29T05:31:52.328Z,3.86
2023-03-29T05:32:52.171Z,3.91
2023-03-29T05:33:52.165Z,3.88
2023-03-29T05:34:52.122Z,3.94
2023-03-29T05:35:52.151Z,3.92
2023-03-29T05:36:52.115Z,3.96
2023-03-29T05:37:52.101Z,3.96
2023-03-29T05:38:52.093Z,3.99
2023-03-29T05:39:52.092Z,3.99
2023-03-29T05:40:52.064Z,3.99
2023-03-29T05:41:52.064Z,4.01
2023-03-29T05:42:52.051Z,4.01
2023-03-29T05:43:52.119Z,4.05
2023-03-29T05:44:54.098Z,4.06
2023-03-29T05:45:52.043Z,4.05
2023-03-29T05:46:52.005Z,4.05
2023-03-29T05:47:52.017Z,4.04
2023-03-29T05:48:52.008Z,4.01
2023-03-29T05:49:51.974Z,4.04
2023-03-29T05:50:51.951Z,4.02
2023-03-29T05:51:51.991Z,4.05
2023-03-29T05:52:51.938Z,4.05
2023-03-29T05:53:51.959Z,4.04
2023-03-29T05:54:51.922Z,4.08
2023-03-29T05:55:52.008Z,4.08
2023-03-29T05:56:51.979Z,4.08
2023-03-29T05:57:51.899Z,4.10
2023-03-29T05:58:53.731Z,4.16
2023-03-29T05:59:51.884Z,4.17
2023-03-29T06:00:51.868Z,4.17
2023-03-29T06:01:51.947Z,4.17
2023-03-29T06:02:51.930Z,4.23
2023-03-29T06:03:51.997Z,4.23
2023-03-29T06:04:51.944Z,4.24
2023-03-29T06:05:51.826Z,4.24
2023-03-29T06:06:51.822Z,4.26
2023-03-29T06:07:51.792Z,4.28
2023-03-29T06:08:51.851Z,4.26
2023-03-29T06:09:51.780Z,4.26
2023-03-29T06:10:51.761Z,4.28
2023-03-29T06:11:51.954Z,4.30
2023-03-29T06:12:51.760Z,4.24
2023-03-29T06:13:51.892Z,4.24
2023-03-29T06:14:51.752Z,4.26
2023-03-29T06:15:51.737Z,4.26
2023-03-29T06:16:51.728Z,4.28
2023-03-29T06:17:51.747Z,4.28
2023-03-29T06:18:51.687Z,4.30
2023-03-29T06:19:51.688Z,4.28
2023-03-29T06:20:51.664Z,4.28
2023-03-29T06:21:51.671Z,4.28
2023-03-29T06:22:51.637Z,4.28
2023-03-29T06:23:51.647Z,4.26
2023-03-29T06:24:51.633Z,4.26
2023-03-29T06:25:51.631Z,4.31
2023-03-29T06:26:51.604Z,4.30
2023-03-29T06:27:51.581Z,4.34
2023-03-29T06:28:52.426Z,4.37
2023-03-29T06:29:51.576Z,4.38
2023-03-29T06:30:51.587Z,4.38
2023-03-29T06:31:51.848Z,4.41
2023-03-29T06:32:51.570Z,4.42
2023-03-29T06:33:51.532Z,4.45
2023-03-29T06:34:51.556Z,4.48
2023-03-29T06:35:51.577Z,4.50
2023-03-29T06:36:51.492Z,4.50
2023-03-29T06:37:51.479Z,4.50
2023-03-29T06:38:51.475Z,4.55
2023-03-29T06:39:53.195Z,4.62
2023-03-29T06:40:51.483Z,4.60
2023-03-29T06:41:51.445Z,4.63
2023-03-29T06:42:51.432Z,4.68
2023-03-29T06:43:51.417Z,4.70
2023-03-29T06:44:51.429Z,4.77
2023-03-29T06:45:51.408Z,4.80
2023-03-29T06:46:51.514Z,4.84
2023-03-29T06:47:51.678Z,4.86
2023-03-29T06:48:51.376Z,4.84
2023-03-29T06:49:51.358Z,4.89
2023-03-29T06:50:51.362Z,4.93
2023-03-29T06:51:51.366Z,4.92
2023-03-29T06:52:51.347Z,4.96
2023-03-29T06:53:51.331Z,4.94
2023-03-29T06:54:51.644Z,5.00
2023-03-29T06:55:51.312Z,5.12
2023-03-29T06:56:51.357Z,5.11
2023-03-29T06:57:51.330Z,5.08
2023-03-29T06:58:51.275Z,5.11
2023-03-29T06:59:51.263Z,5.17
2023-03-29T07:00:51.499Z,5.15
2023-03-29T07:01:51.246Z,5.17
2023-03-29T07:02:51.285Z,5.21
2023-03-29T07:03:51.230Z,5.18
2023-03-29T07:04:51.264Z,5.15
2023-03-29T07:05:51.329Z,5.17
2023-03-29T07:06:51.210Z,5.17
2023-03-29T07:07:51.186Z,5.18
2023-03-29T07:08:51.174Z,5.17
2023-03-29T07:09:51.177Z,5.20
2023-03-29T07:10:51.149Z,5.23
2023-03-29T07:11:51.140Z,5.28
2023-03-29T07:12:51.127Z,5.30
2023-03-29T07:13:51.116Z,5.29
2023-03-29T07:14:51.127Z,5.33
2023-03-29T07:15:51.139Z,5.41
2023-03-29T07:16:51.085Z,5.50
2023-03-29T07:17:51.286Z,5.53
2023-03-29T07:18:51.060Z,5.61
2023-03-29T07:19:51.069Z,5.59
2023-03-29T07:20:51.042Z,5.54
2023-03-29T07:21:51.050Z,5.59
2023-03-29T07:22:51.099Z,5.57
2023-03-29T07:23:51.020Z,5.57
2023-03-29T07:24:51.041Z,5.61
2023-03-29T07:25:50.984Z,5.64
2023-03-29T07:27:03.101Z,5.59
2023-03-29T07:27:50.973Z,5.62
2023-03-29T07:28:51.026Z,5.56
2023-03-29T07:29:50.966Z,5.56
2023-03-29T07:30:50.992Z,5.53
2023-03-29T07:31:50.928Z,5.53
2023-03-29T07:32:51.037Z,5.56
2023-03-29T07:33:50.988Z,5.53
2023-03-29T07:34:51.626Z,5.53
2023-03-29T07:35:50.982Z,5.62
2023-03-29T07:36:50.974Z,5.68
2023-03-29T07:37:50.868Z,5.73
2023-03-29T07:38:50.949Z,5.69
2023-03-29T07:39:50.899Z,5.62
2023-03-29T07:40:50.838Z,5.62
2023-03-29T07:41:50.873Z,5.56
2023-03-29T07:42:50.825Z,5.57
2023-03-29T07:43:50.801Z,5.59
2023-03-29T07:44:50.817Z,5.61
2023-03-29T07:45:50.806Z,5.64
2023-03-29T07:46:50.775Z,5.68
2023-03-29T07:47:50.788Z,5.75
2023-03-29T07:48:50.774Z,5.76
2023-03-29T07:49:50.821Z,5.82
2023-03-29T07:50:50.787Z,5.90
2023-03-29T07:51:50.730Z,6.02
2023-03-29T07:52:50.719Z,5.99
2023-03-29T07:53:50.708Z,6.04
2023-03-29T07:54:50.709Z,6.12
2023-03-29T07:55:50.689Z,6.20
2023-03-29T07:56:50.731Z,6.30
2023-03-29T07:57:50.704Z,6.35
2023-03-29T07:58:50.648Z,6.46
2023-03-29T07:59:50.767Z,6.46
2023-03-29T08:00:50.810Z,6.36
2023-03-29T08:01:50.615Z,6.39
2023-03-29T08:02:50.641Z,6.59
2023-03-29T08:03:50.664Z,6.81
2023-03-29T08:04:50.677Z,6.96
2023-03-29T08:05:50.623Z,6.85
2023-03-29T08:06:50.623Z,6.63
2023-03-29T08:07:50.593Z,6.56
2023-03-29T08:08:50.546Z,6.56
2023-03-29T08:09:50.552Z,6.46
2023-03-29T08:10:50.568Z,6.49
2023-03-29T08:11:50.522Z,6.60
2023-03-29T08:12:50.511Z,6.60
2023-03-29T08:13:50.487Z,6.72
2023-03-29T08:14:50.561Z,6.89
2023-03-29T08:15:50.469Z,6.89
2023-03-29T08:16:50.528Z,6.95
2023-03-29T08:17:50.484Z,6.97
2023-03-29T08:18:50.634Z,6.93
2023-03-29T08:19:50.931Z,6.82
2023-03-29T08:20:50.431Z,6.88
2023-03-29T08:21:50.482Z,6.88
2023-03-29T08:22:50.412Z,6.89
2023-03-29T08:23:50.439Z,6.89
2023-03-29T08:24:50.428Z,6.93
2023-03-29T08:25:50.373Z,7.00
2023-03-29T08:26:50.472Z,6.97
2023-03-29T08:27:50.435Z,6.88
2023-03-29T08:28:50.360Z,6.82
2023-03-29T08:29:50.375Z,6.77
2023-03-29T08:30:50.394Z,6.77
2023-03-29T08:31:50.377Z,6.84
2023-03-29T08:32:52.948Z,6.88
2023-03-29T08:33:50.307Z,6.96
2023-03-29T08:34:50.346Z,7.03
2023-03-29T08:35:50.290Z,7.14
2023-03-29T08:36:50.278Z,7.29
2023-03-29T08:37:50.332Z,7.35
2023-03-29T08:38:50.249Z,7.35
2023-03-29T08:39:50.247Z,7.35
2023-03-29T08:40:50.457Z,7.42
2023-03-29T08:41:50.265Z,7.50
2023-03-29T08:42:50.319Z,7.53
2023-03-29T08:43:50.216Z,7.53
2023-03-29T08:44:50.265Z,7.48
2023-03-29T08:45:51.150Z,7.43
2023-03-29T08:46:50.293Z,7.42
2023-03-29T08:47:50.172Z,7.33
2023-03-29T08:48:50.151Z,7.36
2023-03-29T08:49:50.232Z,7.47
2023-03-29T08:50:50.143Z,7.70
2023-03-29T08:51:50.136Z,7.73
2023-03-29T08:52:50.172Z,7.77
2023-03-29T08:53:50.211Z,7.67
2023-03-29T08:54:50.085Z,7.42
2023-03-29T08:55:50.129Z,7.35
2023-03-29T08:56:50.715Z,7.42
2023-03-29T08:57:50.062Z,7.38
2023-03-29T08:58:50.068Z,7.33
2023-03-29T08:59:50.064Z,7.35
2023-03-29T09:00:50.039Z,7.35
2023-03-29T09:01:50.040Z,7.28
2023-03-29T09:02:50.083Z,7.24
2023-03-29T09:03:50.326Z,7.20
2023-03-29T09:04:50.034Z,7.24
2023-03-29T09:05:49.998Z,7.38
2023-03-29T09:06:50.000Z,7.47
2023-03-29T09:07:50.071Z,7.50
2023-03-29T09:08:49.958Z,7.60
2023-03-29T09:09:50.030Z,7.56
2023-03-29T09:10:49.973Z,7.66
2023-03-29T09:11:49.947Z,7.85
2023-03-29T09:12:49.948Z,7.95
2023-03-29T09:13:49.926Z,8.16
2023-03-29T09:14:49.928Z,8.33
2023-03-29T09:15:49.918Z,8.33
2023-03-29T09:16:49.891Z,8.49
2023-03-29T09:17:49.976Z,8.53
2023-03-29T09:18:49.862Z,8.81
2023-03-29T09:19:49.847Z,9.14
2023-03-29T09:20:49.842Z,9.32
2023-03-29T09:21:49.818Z,9.51
2023-03-29T09:22:49.799Z,9.48
2023-03-29T09:23:49.801Z,9.44
2023-03-29T09:24:49.790Z,9.51
2023-03-29T09:25:53.495Z,9.51
2023-03-29T09:26:49.756Z,9.59
2023-03-29T09:27:49.978Z,9.74
2023-03-29T09:28:49.739Z,9.72
2023-03-29T09:29:49.728Z,9.82
2023-03-29T09:30:49.743Z,9.86
2023-03-29T09:31:49.809Z,9.50
2023-03-29T09:32:49.724Z,9.25
2023-03-29T09:33:49.712Z,9.11
2023-03-29T09:34:49.864Z,9.13
2023-03-29T09:35:49.689Z,8.95
2023-03-29T09:36:49.704Z,8.89
2023-03-29T09:37:49.638Z,8.78
2023-03-29T09:38:49.658Z,8.66
2023-03-29T09:39:49.611Z,8.74
2023-03-29T09:40:49.660Z,8.84
2023-03-29T09:41:49.593Z,8.71
2023-03-29T09:42:49.610Z,8.85
2023-03-29T09:43:49.611Z,8.95
2023-03-29T09:44:49.577Z,8.97
2023-03-29T09:45:49.631Z,9.00
2023-03-29T09:46:49.547Z,8.97
2023-03-29T09:47:49.634Z,8.95
2023-03-29T09:48:49.538Z,8.94
2023-03-29T09:49:49.601Z,8.88
2023-03-29T09:50:49.515Z,8.88
2023-03-29T09:51:49.564Z,8.78
2023-03-29T09:52:49.487Z,8.76
2023-03-29T09:53:49.590Z,8.87
2023-03-29T09:54:49.493Z,9.00
2023-03-29T09:55:50.341Z,9.11
2023-03-29T09:56:49.603Z,9.14
2023-03-29T09:57:49.472Z,9.22
2023-03-29T09:58:49.480Z,9.21
2023-03-29T09:59:49.493Z,9.22
2023-03-29T10:00:49.460Z,9.31
2023-03-29T10:01:49.413Z,9.41
2023-03-29T10:02:49.462Z,9.46
2023-03-29T10:03:49.381Z,9.46
2023-03-29T10:04:49.360Z,9.48
2023-03-29T10:05:49.362Z,9.54
2023-03-29T10:06:49.422Z,9.43
2023-03-29T10:07:49.368Z,9.40
2023-03-29T10:08:49.329Z,9.31
2023-03-29T10:09:49.310Z,9.29
2023-03-29T10:10:49.332Z,9.32
2023-03-29T10:11:49.321Z,9.26
2023-03-29T10:12:49.286Z,9.28
2023-03-29T10:13:49.314Z,9.26
2023-03-29T10:14:51.516Z,9.25
2023-03-29T10:15:49.785Z,9.23
2023-03-29T10:16:49.321Z,9.26
2023-03-29T10:17:49.290Z,9.28
2023-03-29T10:18:49.238Z,9.28
2023-03-29T10:19:49.208Z,9.25
2023-03-29T10:20:49.260Z,9.04
2023-03-29T10:21:49.255Z,8.95
2023-03-29T10:22:49.184Z,8.97
2023-03-29T10:23:49.159Z,8.99
2023-03-29T10:24:49.168Z,9.10
2023-03-29T10:25:49.313Z,9.10
2023-03-29T10:26:49.129Z,9.25
2023-03-29T10:27:49.149Z,9.47
2023-03-29T10:28:49.109Z,9.74
2023-03-29T10:29:49.095Z,9.99
2023-03-29T10:30:49.117Z,10.09
2023-03-29T10:31:49.144Z,9.99
2023-03-29T10:32:49.168Z,9.80
2023-03-29T10:33:49.068Z,9.66
2023-03-29T10:34:49.068Z,9.72
2023-03-29T10:35:49.141Z,9.82
2023-03-29T10:36:49.033Z,9.86
2023-03-29T10:37:49.039Z,9.98
2023-03-29T10:38:49.185Z,9.98
2023-03-29T10:39:48.993Z,10.05
2023-03-29T10:40:49.020Z,10.13
2023-03-29T10:41:48.979Z,9.97
2023-03-29T10:42:48.980Z,9.94
2023-03-29T10:43:48.965Z,9.94
2023-03-29T10:44:48.942Z,10.05
2023-03-29T10:45:49.032Z,10.05
2023-03-29T10:46:48.928Z,9.92
2023-03-29T10:47:48.928Z,10.07
2023-03-29T10:48:48.932Z,9.94
2023-03-29T10:49:50.380Z,9.91
2023-03-29T10:50:48.896Z,9.84
2023-03-29T10:51:48.873Z,9.87
2023-03-29T10:52:48.856Z,9.97
2023-03-29T10:53:48.857Z,10.09
2023-03-29T10:54:48.857Z,10.05
2023-03-29T10:55:48.852Z,10.10
2023-03-29T10:56:50.760Z,10.07
2023-03-29T10:57:48.857Z,10.07
2023-03-29T10:58:48.795Z,9.99
2023-03-29T10:59:48.819Z,9.84
2023-03-29T11:00:48.831Z,9.68
2023-03-29T11:01:48.811Z,9.69
2023-03-29T11:02:48.864Z,9.69
2023-03-29T11:03:48.853Z,9.68
2023-03-29T11:04:48.766Z,9.61
2023-03-29T11:05:48.825Z,9.62
2023-03-29T11:06:48.721Z,9.62
2023-03-29T11:07:48.818Z,9.82
2023-03-29T11:08:48.703Z,9.91
2023-03-29T11:09:48.693Z,9.91
2023-03-29T11:10:48.710Z,9.94
2023-03-29T11:11:48.669Z,10.05
2023-03-29T11:12:48.639Z,10.17
2023-03-29T11:13:48.650Z,10.22
2023-03-29T11:14:48.622Z,10.19
2023-03-29T11:15:48.738Z,10.13
2023-03-29T11:16:48.616Z,10.07
2023-03-29T11:17:48.685Z,10.07
2023-03-29T11:18:48.596Z,10.12
2023-03-29T11:19:48.583Z,10.04
2023-03-29T11:20:48.571Z,9.89
2023-03-29T11:21:48.570Z,9.74
2023-03-29T11:22:48.579Z,9.51
2023-03-29T11:23:48.529Z,9.48
2023-03-29T11:24:48.515Z,9.50
2023-03-29T11:25:48.522Z,9.48
2023-03-29T11:26:48.520Z,9.54
2023-03-29T11:27:48.497Z,9.56
2023-03-29T11:28:48.533Z,9.56
2023-03-29T11:29:48.470Z,9.50
2023-03-29T11:30:48.536Z,9.56
2023-03-29T11:31:48.509Z,9.79
2023-03-29T11:32:48.519Z,10.05
2023-03-29T11:33:48.440Z,10.20
2023-03-29T11:34:48.430Z,10.22
2023-03-29T11:35:48.433Z,10.31
2023-03-29T11:36:48.407Z,10.57
2023-03-29T11:37:48.403Z,10.72
2023-03-29T11:38:48.372Z,10.87
2023-03-29T11:39:48.381Z,11.05
2023-03-29T11:40:48.446Z,11.04
2023-03-29T11:41:48.362Z,10.99
2023-03-29T11:42:48.339Z,11.12
2023-03-29T11:43:48.483Z,11.23
2023-03-29T11:44:48.348Z,11.19
2023-03-29T11:45:48.347Z,11.26
2023-03-29T11:46:48.386Z,11.17
2023-03-29T11:47:48.373Z,10.99
2023-03-29T11:48:49.222Z,10.93
2023-03-29T11:49:48.262Z,10.84
2023-03-29T11:50:48.289Z,10.86
2023-03-29T11:51:48.276Z,10.87
2023-03-29T11:52:48.224Z,10.84
2023-03-29T11:53:48.338Z,10.92
2023-03-29T11:54:48.208Z,11.10
2023-03-29T11:55:48.201Z,11.32
2023-03-29T11:56:48.474Z,11.54
2023-03-29T11:57:48.176Z,11.78
2023-03-29T11:58:48.158Z,11.99
2023-03-29T11:59:48.187Z,12.18
2023-03-29T12:00:48.183Z,12.27
2023-03-29T12:01:48.169Z,12.42
2023-03-29T12:02:48.628Z,12.45
2023-03-29T12:03:48.302Z,12.39
2023-03-29T12:04:48.142Z,12.39
2023-03-29T12:05:48.120Z,12.36
2023-03-29T12:06:48.123Z,12.28
2023-03-29T12:07:48.076Z,12.40
2023-03-29T12:08:48.076Z,12.46
2023-03-29T12:09:48.061Z,12.47
2023-03-29T12:10:48.038Z,12.40
2023-03-29T12:11:48.226Z,12.47
2023-03-29T12:12:48.011Z,12.82
2023-03-29T12:13:48.014Z,12.98
2023-03-29T12:14:47.994Z,12.91
2023-03-29T12:15:47.990Z,12.82
2023-03-29T12:16:48.565Z,12.62
2023-03-29T12:17:48.038Z,12.55
2023-03-29T12:18:47.943Z,12.80
2023-03-29T12:19:47.947Z,12.78
2023-03-29T12:20:47.924Z,12.76
2023-03-29T12:21:48.368Z,12.60
2023-03-29T12:22:47.911Z,12.60
2023-03-29T12:23:47.905Z,12.58
2023-03-29T12:24:47.918Z,12.42
2023-03-29T12:25:47.880Z,12.39
2023-03-29T12:26:47.880Z,12.53
2023-03-29T12:27:47.856Z,12.78
2023-03-29T12:28:47.843Z,13.15
2023-03-29T12:29:47.844Z,13.15
2023-03-29T12:30:47.840Z,13.28
2023-03-29T12:31:47.983Z,13.11
2023-03-29T12:32:47.864Z,12.97
2023-03-29T12:33:47.816Z,13.03
2023-03-29T12:34:47.798Z,13.35
2023-03-29T12:35:47.938Z,13.95
2023-03-29T12:36:47.779Z,13.99
2023-03-29T12:37:47.780Z,14.08
2023-03-29T12:38:47.747Z,14.28
2023-03-29T12:39:47.817Z,14.28
2023-03-29T12:40:47.725Z,14.17
2023-03-29T12:41:47.735Z,13.95
2023-03-29T12:42:47.715Z,13.78
2023-03-29T12:43:47.701Z,13.79
2023-03-29T12:44:47.763Z,13.97
2023-03-29T12:45:47.742Z,13.79
2023-03-29T12:46:47.699Z,13.65
2023-03-29T12:47:47.721Z,13.52
2023-03-29T12:48:47.646Z,13.37
2023-03-29T12:49:47.642Z,13.42
2023-03-29T12:50:47.688Z,13.35
2023-03-29T12:51:47.646Z,13.20
2023-03-29T12:52:47.652Z,13.03
2023-03-29T12:53:47.622Z,13.01
2023-03-29T12:54:47.604Z,13.12
2023-03-29T12:55:47.626Z,13.13
2023-03-29T12:56:47.756Z,13.27
2023-03-29T12:57:47.644Z,13.49
2023-03-29T12:58:47.628Z,13.57
2023-03-29T12:59:47.641Z,13.68
2023-03-29T13:00:47.651Z,13.95
2023-03-29T13:01:48.589Z,14.10
2023-03-29T13:02:47.557Z,14.03
2023-03-29T13:03:47.484Z,14.07
2023-03-29T13:04:47.689Z,13.95
2023-03-29T13:05:47.659Z,13.95
2023-03-29T13:06:47.502Z,14.15
2023-03-29T13:07:47.489Z,14.07
2023-03-29T13:08:47.502Z,14.03
2023-03-29T13:09:47.416Z,14.50
2023-03-29T13:10:47.434Z,14.70
2023-03-29T13:11:47.403Z,15.43
2023-03-29T13:12:47.403Z,15.76
2023-03-29T13:13:47.414Z,15.83
2023-03-29T13:14:47.459Z,16.58